NOZ2WZ ENGM-LFMN
Flight info
| Callsign | NOZ2WZ |
|---|---|
| Flight time | N/A |
| Altitude | 36000 |
| Route | VIPPA DCT NIROD DCT LUTIR DCT MALYK DCT ISMEF DCT MISGO DCT LIMGO DCT SUTAL DCT GTQ DCT POGOL DCT LASAT DCT MOROK DCT GILIR DCT GEVEA DCT KOGAS DCT MEDAM DCT VEVAR |
| Aircraft | B738/M-SDE2E3FGHIRWXY/LB1 |
Departure
| Time | 2026-05-07 12:41 |
|---|---|
| Airport | Oslo-Gardermoen International Airport (ENGM) |
Arrival
| Time | N/A |
|---|---|
| Airport | Nice-Côte d'Azur Airport (LFMN) |
| Time | Latitude | Longitude | Altitude | Speed | Heading |
|---|---|---|---|---|---|
| 2026-05-07 12:05 | 60.19640 | 11.10203 | 684 ft | 0 kts | 286° |
| 2026-05-07 12:28 | 60.19639 | 11.10211 | 679 ft | 3 kts | 286° |
| 2026-05-07 12:28 | 60.19632 | 11.10263 | 681 ft | 4 kts | 286° |
| 2026-05-07 12:28 | 60.19628 | 11.10292 | 682 ft | 0 kts | 286° |
| 2026-05-07 12:33 | 60.19641 | 11.10309 | 678 ft | 1 kts | 62° |
| 2026-05-07 12:33 | 60.19645 | 11.10333 | 680 ft | 4 kts | 73° |
| 2026-05-07 12:33 | 60.19662 | 11.10416 | 684 ft | 8 kts | 54° |
| 2026-05-07 12:34 | 60.19715 | 11.10475 | 683 ft | 9 kts | 17° |
| 2026-05-07 12:34 | 60.19773 | 11.10509 | 679 ft | 9 kts | 16° |
| 2026-05-07 12:34 | 60.19843 | 11.10550 | 681 ft | 11 kts | 16° |
| 2026-05-07 12:34 | 60.19917 | 11.10593 | 680 ft | 11 kts | 21° |
| 2026-05-07 12:35 | 60.19945 | 11.10721 | 683 ft | 11 kts | 102° |
| 2026-05-07 12:35 | 60.19924 | 11.10865 | 680 ft | 11 kts | 107° |
| 2026-05-07 12:35 | 60.19904 | 11.11006 | 683 ft | 10 kts | 106° |
| 2026-05-07 12:35 | 60.19885 | 11.11140 | 682 ft | 10 kts | 105° |
| 2026-05-07 12:36 | 60.19865 | 11.11276 | 679 ft | 10 kts | 105° |
| 2026-05-07 12:36 | 60.19847 | 11.11414 | 682 ft | 10 kts | 105° |
| 2026-05-07 12:36 | 60.19869 | 11.11532 | 684 ft | 10 kts | 31° |
| 2026-05-07 12:36 | 60.19932 | 11.11570 | 684 ft | 10 kts | 14° |
| 2026-05-07 12:37 | 60.19996 | 11.11607 | 685 ft | 9 kts | 17° |
| 2026-05-07 12:37 | 60.20056 | 11.11644 | 686 ft | 9 kts | 17° |
| 2026-05-07 12:37 | 60.20116 | 11.11679 | 686 ft | 9 kts | 15° |
| 2026-05-07 12:37 | 60.20167 | 11.11737 | 683 ft | 9 kts | 57° |
| 2026-05-07 12:38 | 60.20166 | 11.11854 | 683 ft | 9 kts | 104° |
| 2026-05-07 12:38 | 60.20152 | 11.11959 | 680 ft | 6 kts | 106° |
| 2026-05-07 12:38 | 60.20150 | 11.11969 | 683 ft | 0 kts | 105° |
| 2026-05-07 12:39 | 60.20143 | 11.12019 | 685 ft | 7 kts | 105° |
| 2026-05-07 12:39 | 60.20116 | 11.12161 | 687 ft | 12 kts | 123° |
| 2026-05-07 12:40 | 60.20070 | 11.12213 | 684 ft | 11 kts | 176° |
| 2026-05-07 12:40 | 60.20039 | 11.12201 | 688 ft | 0 kts | 194° |
| 2026-05-07 12:40 | 60.19963 | 11.12157 | 687 ft | 41 kts | 196° |
| 2026-05-07 12:41 | 60.19456 | 11.11865 | 682 ft | 111 kts | 196° |
| 2026-05-07 12:41 | 60.18511 | 11.11322 | 681 ft | 168 kts | 196° |
| 2026-05-07 12:41 | 60.17337 | 11.10650 | 1269 ft | 172 kts | 196° |
| 2026-05-07 12:41 | 60.16198 | 11.10005 | 2156 ft | 171 kts | 196° |
| 2026-05-07 12:42 | 60.15033 | 11.09351 | 2768 ft | 184 kts | 196° |
| 2026-05-07 12:42 | 60.13746 | 11.08664 | 3302 ft | 197 kts | 196° |
| 2026-05-07 12:42 | 60.12332 | 11.08019 | 3553 ft | 221 kts | 188° |
| 2026-05-07 12:42 | 60.10737 | 11.07670 | 3891 ft | 236 kts | 187° |
| 2026-05-07 12:43 | 60.09062 | 11.07296 | 4260 ft | 251 kts | 187° |
| 2026-05-07 12:43 | 60.07267 | 11.06937 | 4755 ft | 264 kts | 186° |
| 2026-05-07 12:43 | 60.05434 | 11.06502 | 5608 ft | 264 kts | 192° |
| 2026-05-07 12:43 | 60.03699 | 11.05478 | 6442 ft | 265 kts | 200° |
| 2026-05-07 12:44 | 60.01948 | 11.04166 | 7187 ft | 270 kts | 202° |
| 2026-05-07 12:44 | 60.00182 | 11.02804 | 7962 ft | 273 kts | 202° |
| 2026-05-07 12:44 | 59.98381 | 11.01429 | 8662 ft | 279 kts | 203° |
| 2026-05-07 12:44 | 59.96579 | 11.00070 | 9453 ft | 281 kts | 203° |
| 2026-05-07 12:45 | 59.94737 | 10.98700 | 10226 ft | 283 kts | 203° |
| 2026-05-07 12:45 | 59.92838 | 10.97300 | 10590 ft | 301 kts | 203° |
| 2026-05-07 12:45 | 59.90796 | 10.95805 | 10778 ft | 323 kts | 202° |
| 2026-05-07 12:45 | 59.88606 | 10.94229 | 10946 ft | 344 kts | 202° |
| 2026-05-07 12:46 | 59.86273 | 10.92544 | 11117 ft | 364 kts | 202° |
| 2026-05-07 12:46 | 59.83865 | 10.90807 | 11452 ft | 376 kts | 202° |
| 2026-05-07 12:46 | 59.81383 | 10.89025 | 12073 ft | 379 kts | 202° |
| 2026-05-07 12:46 | 59.78883 | 10.87239 | 12813 ft | 380 kts | 202° |
| 2026-05-07 12:47 | 59.76426 | 10.85449 | 13483 ft | 382 kts | 204° |
| 2026-05-07 12:47 | 59.73937 | 10.83531 | 14110 ft | 385 kts | 204° |
| 2026-05-07 12:47 | 59.71426 | 10.81557 | 14663 ft | 388 kts | 205° |
| 2026-05-07 12:47 | 59.68912 | 10.79575 | 15230 ft | 390 kts | 205° |
| 2026-05-07 12:48 | 59.66370 | 10.77579 | 15796 ft | 393 kts | 205° |
| 2026-05-07 12:48 | 59.63837 | 10.75599 | 16355 ft | 396 kts | 205° |
| 2026-05-07 12:48 | 59.61255 | 10.73592 | 16911 ft | 398 kts | 205° |
| 2026-05-07 12:48 | 59.58656 | 10.71579 | 17448 ft | 401 kts | 205° |
| 2026-05-07 12:49 | 59.56046 | 10.69565 | 17965 ft | 404 kts | 205° |
| 2026-05-07 12:49 | 59.53443 | 10.67561 | 18474 ft | 407 kts | 206° |
| 2026-05-07 12:49 | 59.50796 | 10.65527 | 18920 ft | 410 kts | 206° |
| 2026-05-07 12:49 | 59.48128 | 10.63479 | 19358 ft | 412 kts | 206° |
| 2026-05-07 12:50 | 59.45431 | 10.61412 | 19760 ft | 415 kts | 206° |
| 2026-05-07 12:50 | 59.42716 | 10.59336 | 20151 ft | 419 kts | 206° |
| 2026-05-07 12:50 | 59.39993 | 10.57257 | 20567 ft | 421 kts | 206° |
| 2026-05-07 12:50 | 59.37279 | 10.55189 | 20988 ft | 424 kts | 206° |
| 2026-05-07 12:51 | 59.34523 | 10.53094 | 21386 ft | 426 kts | 206° |
| 2026-05-07 12:51 | 59.31738 | 10.50979 | 21777 ft | 429 kts | 206° |
| 2026-05-07 12:51 | 59.28941 | 10.48859 | 22190 ft | 432 kts | 206° |
| 2026-05-07 12:51 | 59.26133 | 10.46734 | 22573 ft | 434 kts | 206° |
| 2026-05-07 12:52 | 59.23325 | 10.44612 | 22936 ft | 437 kts | 206° |
| 2026-05-07 12:52 | 59.20486 | 10.42472 | 23293 ft | 439 kts | 206° |
| 2026-05-07 12:52 | 59.17615 | 10.40311 | 23625 ft | 442 kts | 206° |
| 2026-05-07 12:52 | 59.14758 | 10.38163 | 23861 ft | 445 kts | 206° |
| 2026-05-07 12:53 | 59.11829 | 10.35967 | 24151 ft | 447 kts | 206° |
| 2026-05-07 12:53 | 59.08913 | 10.33784 | 24458 ft | 449 kts | 206° |
| 2026-05-07 12:53 | 59.05993 | 10.31603 | 24752 ft | 450 kts | 206° |
| 2026-05-07 12:53 | 59.03066 | 10.29419 | 25021 ft | 452 kts | 206° |
| 2026-05-07 12:54 | 59.00114 | 10.27220 | 25281 ft | 455 kts | 206° |
| 2026-05-07 12:54 | 58.97180 | 10.25038 | 25536 ft | 456 kts | 206° |
| 2026-05-07 12:54 | 58.94189 | 10.22820 | 25800 ft | 458 kts | 206° |
| 2026-05-07 12:54 | 58.91204 | 10.20631 | 26021 ft | 460 kts | 206° |
| 2026-05-07 12:55 | 58.88212 | 10.18461 | 26255 ft | 462 kts | 205° |
| 2026-05-07 12:55 | 58.85195 | 10.16287 | 26584 ft | 462 kts | 205° |
| 2026-05-07 12:55 | 58.82184 | 10.14124 | 27031 ft | 459 kts | 205° |
| 2026-05-07 12:55 | 58.79195 | 10.11980 | 27446 ft | 457 kts | 206° |
| 2026-05-07 12:56 | 58.76245 | 10.09862 | 27780 ft | 457 kts | 206° |
| 2026-05-07 12:56 | 58.73263 | 10.07721 | 28088 ft | 457 kts | 206° |
| 2026-05-07 12:56 | 58.70278 | 10.05580 | 28438 ft | 456 kts | 206° |
| 2026-05-07 12:56 | 58.67293 | 10.03443 | 28826 ft | 455 kts | 206° |
| 2026-05-07 12:57 | 58.64342 | 10.01335 | 29177 ft | 454 kts | 206° |
| 2026-05-07 12:57 | 58.61375 | 9.99217 | 29442 ft | 455 kts | 205° |
| 2026-05-07 12:57 | 58.58398 | 9.97096 | 29720 ft | 456 kts | 205° |
| 2026-05-07 12:57 | 58.55417 | 9.94977 | 30095 ft | 455 kts | 205° |
| 2026-05-07 12:58 | 58.52447 | 9.92871 | 30430 ft | 453 kts | 205° |
| 2026-05-07 12:58 | 58.49530 | 9.90807 | 30711 ft | 452 kts | 205° |
| 2026-05-07 12:58 | 58.46560 | 9.88708 | 30949 ft | 453 kts | 205° |
| 2026-05-07 12:58 | 58.43627 | 9.86637 | 31207 ft | 453 kts | 205° |
| 2026-05-07 12:59 | 58.40670 | 9.84554 | 31487 ft | 452 kts | 205° |
| 2026-05-07 12:59 | 58.37712 | 9.82474 | 31759 ft | 451 kts | 205° |
| 2026-05-07 12:59 | 58.34762 | 9.80403 | 32014 ft | 451 kts | 205° |
| 2026-05-07 12:59 | 58.31836 | 9.78352 | 32262 ft | 451 kts | 205° |
| 2026-05-07 13:00 | 58.28890 | 9.76292 | 32523 ft | 450 kts | 205° |
| 2026-05-07 13:00 | 58.25944 | 9.74234 | 32788 ft | 450 kts | 205° |
| 2026-05-07 13:00 | 58.23000 | 9.72181 | 33025 ft | 450 kts | 205° |
| 2026-05-07 13:00 | 58.20064 | 9.70137 | 33261 ft | 450 kts | 205° |
| 2026-05-07 13:01 | 58.17131 | 9.68099 | 33511 ft | 449 kts | 205° |
| 2026-05-07 13:01 | 58.14191 | 9.66058 | 33764 ft | 449 kts | 205° |
| 2026-05-07 13:01 | 58.11249 | 9.64020 | 33947 ft | 449 kts | 205° |
| 2026-05-07 13:01 | 58.08335 | 9.62013 | 34119 ft | 450 kts | 204° |
| 2026-05-07 13:02 | 58.05310 | 9.60330 | 34276 ft | 454 kts | 199° |
| 2026-05-07 13:02 | 58.02220 | 9.58966 | 34490 ft | 454 kts | 197° |
| 2026-05-07 13:02 | 57.99164 | 9.57714 | 34706 ft | 453 kts | 197° |
| 2026-05-07 13:02 | 57.96072 | 9.56471 | 34891 ft | 453 kts | 197° |
| 2026-05-07 13:03 | 57.92994 | 9.55221 | 35055 ft | 453 kts | 197° |
| 2026-05-07 13:03 | 57.89910 | 9.53948 | 35237 ft | 452 kts | 197° |
| 2026-05-07 13:03 | 57.86866 | 9.52674 | 35428 ft | 451 kts | 197° |
| 2026-05-07 13:03 | 57.83790 | 9.51374 | 35586 ft | 451 kts | 197° |
| 2026-05-07 13:04 | 57.80722 | 9.50070 | 35716 ft | 452 kts | 197° |
| 2026-05-07 13:04 | 57.77657 | 9.48765 | 35866 ft | 452 kts | 197° |
| 2026-05-07 13:04 | 57.74591 | 9.47461 | 36057 ft | 451 kts | 197° |
| 2026-05-07 13:04 | 57.71556 | 9.46172 | 36115 ft | 452 kts | 197° |
| 2026-05-07 13:05 | 57.65392 | 9.43561 | 36116 ft | 452 kts | 197° |
| 2026-05-07 13:05 | 57.59289 | 9.40991 | 36116 ft | 450 kts | 197° |
| 2026-05-07 13:06 | 57.53190 | 9.38430 | 36110 ft | 447 kts | 196° |
| 2026-05-07 13:06 | 57.47160 | 9.35907 | 36113 ft | 446 kts | 196° |
| 2026-05-07 13:07 | 57.41082 | 9.33371 | 36111 ft | 446 kts | 196° |
| 2026-05-07 13:07 | 57.35000 | 9.30841 | 36108 ft | 447 kts | 196° |
| 2026-05-07 13:08 | 57.28952 | 9.28335 | 36089 ft | 449 kts | 195° |
| 2026-05-07 13:08 | 57.22838 | 9.25810 | 36106 ft | 450 kts | 195° |
| 2026-05-07 13:09 | 57.16726 | 9.23295 | 36105 ft | 452 kts | 195° |
| 2026-05-07 13:09 | 57.10592 | 9.20779 | 36100 ft | 454 kts | 195° |
| 2026-05-07 13:10 | 57.04416 | 9.18255 | 36075 ft | 455 kts | 195° |
| 2026-05-07 13:10 | 56.98208 | 9.15727 | 36089 ft | 456 kts | 195° |
| 2026-05-07 13:11 | 56.91992 | 9.13204 | 36092 ft | 456 kts | 195° |
| 2026-05-07 13:11 | 56.85811 | 9.10704 | 36089 ft | 457 kts | 195° |
| 2026-05-07 13:12 | 56.79637 | 9.08215 | 36084 ft | 456 kts | 195° |
| 2026-05-07 13:12 | 56.73422 | 9.05718 | 36080 ft | 456 kts | 194° |
| 2026-05-07 13:13 | 56.67226 | 9.03237 | 36083 ft | 455 kts | 194° |
| 2026-05-07 13:13 | 56.61052 | 9.00773 | 36084 ft | 455 kts | 194° |
| 2026-05-07 13:14 | 56.54886 | 8.98320 | 36086 ft | 454 kts | 194° |
| 2026-05-07 13:14 | 56.48700 | 8.95867 | 36083 ft | 454 kts | 194° |
| 2026-05-07 13:15 | 56.42513 | 8.93423 | 36101 ft | 454 kts | 194° |
| 2026-05-07 13:15 | 56.36371 | 8.91004 | 36096 ft | 455 kts | 194° |
| 2026-05-07 13:16 | 56.30159 | 8.88565 | 36099 ft | 455 kts | 194° |
| 2026-05-07 13:16 | 56.23995 | 8.86154 | 36068 ft | 456 kts | 194° |
| 2026-05-07 13:17 | 56.17771 | 8.83727 | 36081 ft | 457 kts | 194° |